Terminal Aerodrome Forecast
Issued by NWS

Home | Current Version | Previous Version | Text Only | Print | Product List | Glossary On
Versions: 1 2 3 4 5 6 7 8 9 10 11 12 13
000
FTUS45 KCYS 201141
TAFLAR
TAF
KLAR 201141Z 2012/2112 27020G30KT P6SM FEW200
     FM201800 24025G35KT P6SM FEW200
     FM210200 23018G28KT P6SM SCT150
     FM210900 24030G40KT P6SM FEW200=

USA.gov is the U.S. government's official web portal to all federal, state and local government web resources and services.